Lula, MS (38644)

10:02 AM CDT on July 26, 2016 (GMT -0500)
Fletcher | | Change Station

Elev 174 ft 34.30 °N, 90.51 °W | Updated 7 minutes ago

Clear
Clear
90 °F
Feels Like 105 °F
N
0
Wind Variable Wind from North

Today
High -- | Low -- °F
--% Chance of Precip.
Yesterday
High -- | Low -- °F
Precip. -- in
Pressure 30.00 in
Visibility 10.0 miles
Clouds Clear
Heat Index 105 °F
Dew Point 79 °F
Humidity 70%
Rainfall 0.00 in
Snow Depth Not available.
6:08 AM 8:07 PM
Waning Gibbous, 54% visible
METAR KCKM 261455Z AUTO 00000KT 10SM CLR 32/26 A3000 RMK A01
Pressure 30.00 in
Visibility 10.0 miles
Clouds Clear
Heat Index 105 °F
Dew Point 79 °F
Humidity 70%
Rainfall 0.00 in
Snow Depth Not available.
6:08 AM 8:07 PM
Waning Gibbous, 54% visible
METAR KCKM 261455Z AUTO 00000KT 10SM CLR 32/26 A3000 RMK A01

10-Day Weather Forecast

Almanac

Astronomy

Jul. 26, 2016 Rise Set
Actual Time
Civil Twilight
Nautical Twilight
Astronomical Twilight
Moon
Length of Visible Light
Length of Day
Tomorrow will be .
, % of the Moon is Illuminated

Today's Extremes

State Highs State Lows

Community

WunderPhotos

Upload Photos

1,927,608 photos uploaded!

WunderBlog® & News

Nearby

Air Quality

  Air Quality AQ Index Pollutant
Not available.

Snow Depth

Station Depth Elevation

Earthquake Activity

City Distance Mag. Time & Date
Minimum magnitude displayed is 2.5.

Coastal Water Temperatures

Place Temperature

Stations

Nearby Weather Stations

Station Location Temp. Windchill Dew Point Humidity Wind Precip. Elev Updated Type
                   

Watches & Warnings

There are currently no watches in effect.